Time;durP1;ratioP1;P1;durP2;ratioP2;P2;SDS_P1;SDS_P2;PMS_P1;PMS_P2;Temp;Humidity;BMP_temperature;BMP_pressure;BME280_temperature;BME280_humidity;BME280_pressure;Samples;Min_cycle;Max_cycle;Signal;HPM_P1;HPM_P2
2022/08/22 00:02:41;;;;;;;0.50;0.50;;;;;;;21.90;45.00;101014.41;5142785;28;20117;-82
2022/08/22 00:05:30;;;;;;;0.68;0.68;;;;;;;21.88;45.43;101012.81;5128870;28;20027;-82
2022/08/22 00:08:08;;;;;;;0.77;0.52;;;;;;;21.89;45.13;101003.84;5127301;28;20038;-81
2022/08/22 00:10:54;;;;;;;2.40;1.02;;;;;;;21.86;45.37;101010.22;5126377;28;20034;-81
2022/08/22 00:13:39;;;;;;;0.32;0.32;;;;;;;21.82;45.70;101003.41;5113215;28;20444;-82
2022/08/22 00:16:26;;;;;;;1.75;0.40;;;;;;;21.79;46.03;101008.94;5142427;28;20034;-81
2022/08/22 00:19:11;;;;;;;0.80;0.80;;;;;;;21.76;45.67;101003.84;5140976;28;20062;-83
2022/08/22 00:21:50;;;;;;;0.30;0.30;;;;;;;21.77;45.47;101006.38;5145130;28;20050;-82
2022/08/22 00:24:45;;;;;;;0.20;0.20;;;;;;;21.75;45.22;101002.13;5146496;28;20034;-82
2022/08/22 00:27:36;;;;;;;0.55;0.55;;;;;;;21.72;45.71;101002.31;5133958;28;20053;-82
2022/08/22 00:30:13;;;;;;;0.50;0.50;;;;;;;21.68;45.88;101007.03;5133106;28;20053;-80
2022/08/22 00:32:58;;;;;;;2.40;1.20;;;;;;;21.65;45.45;101008.09;5125736;28;20212;-80
2022/08/22 00:35:33;;;;;;;0.30;0.30;;;;;;;21.60;46.06;101010.25;5132781;28;20057;-80
2022/08/22 00:38:07;;;;;;;0.28;0.28;;;;;;;21.58;46.01;101006.81;5118547;28;20042;-80
2022/08/22 00:41:00;;;;;;;0.40;0.40;;;;;;;21.56;46.09;101007.88;5169912;28;20031;-81
2022/08/22 00:43:36;;;;;;;0.40;0.40;;;;;;;21.51;46.53;101011.69;5101015;28;20051;-80
2022/08/22 00:46:33;;;;;;;0.80;0.68;;;;;;;21.49;46.05;101007.44;5127527;28;20102;-81
2022/08/22 00:49:21;;;;;;;1.23;1.00;;;;;;;21.45;46.66;101005.91;5131366;28;20034;-81
2022/08/22 00:52:13;;;;;;;0.22;0.22;;;;;;;21.43;46.53;101007.84;5133439;28;20184;-81
2022/08/22 00:55:02;;;;;;;0.75;0.75;;;;;;;21.41;46.16;101007.09;5164226;28;20042;-80
2022/08/22 00:57:50;;;;;;;1.27;0.73;;;;;;;21.36;46.78;101013.59;5115709;28;20447;-80
2022/08/22 01:00:24;;;;;;;0.82;0.82;;;;;;;21.32;47.12;101012.09;5157404;28;20069;-81
2022/08/22 01:03:16;;;;;;;0.50;0.50;;;;;;;21.31;46.73;101013.06;5126786;28;20042;-80
2022/08/22 01:06:06;;;;;;;0.77;0.75;;;;;;;21.28;46.87;101010.59;5167514;28;20031;-80
2022/08/22 01:09:03;;;;;;;0.35;0.35;;;;;;;21.25;46.74;101005.47;5123769;28;20752;-81
2022/08/22 01:11:51;;;;;;;0.30;0.30;;;;;;;21.20;47.25;101007.59;5149316;28;20053;-81
2022/08/22 01:14:53;;;;;;;0.20;0.20;;;;;;;21.17;47.42;101002.47;5150164;28;20061;-80
2022/08/22 01:17:43;;;;;;;0.25;0.25;;;;;;;21.13;47.43;100998.28;5115799;28;20117;-81
2022/08/22 01:20:28;;;;;;;0.60;0.60;;;;;;;21.09;47.79;101004.81;5152631;28;20040;-80
2022/08/22 01:23:37;;;;;;;1.85;0.85;;;;;;;21.07;47.07;100997.75;5133770;28;20039;-81
2022/08/22 01:26:29;;;;;;;0.30;0.30;;;;;;;21.03;47.89;101001.56;5115675;28;20023;-80
2022/08/22 01:29:28;;;;;;;0.80;0.80;;;;;;;21.02;47.36;100999.88;5161731;28;20035;-81
2022/08/22 01:32:47;;;;;;;1.75;0.50;;;;;;;20.99;47.64;100994.75;5134694;28;20578;-80
2022/08/22 01:35:36;;;;;;;0.55;0.55;;;;;;;20.94;47.97;100996.88;5090069;28;20124;-81
2022/08/22 01:38:41;;;;;;;0.20;0.20;;;;;;;20.90;47.72;100992.69;5125655;28;20169;-82
2022/08/22 01:41:34;;;;;;;0.20;0.20;;;;;;;20.85;47.88;100997.47;5161729;28;20042;-81
2022/08/22 01:44:16;;;;;;;0.33;0.33;;;;;;;20.82;48.02;100989.66;5154999;28;20116;-80
2022/08/22 01:47:00;;;;;;;0.40;0.40;;;;;;;20.80;48.11;100994.25;5154793;28;20073;-81
2022/08/22 01:49:43;;;;;;;0.30;0.30;;;;;;;20.77;47.92;101005.13;5137596;28;20041;-81
2022/08/22 01:52:27;;;;;;;0.20;0.20;;;;;;;20.74;47.90;100993.69;5132287;28;20041;-80
2022/08/22 01:55:06;;;;;;;3.63;0.52;;;;;;;20.70;48.01;100986.81;5130046;28;20023;-80
2022/08/22 01:57:59;;;;;;;0.20;0.20;;;;;;;20.68;47.73;100996.75;5129721;28;20125;-81
2022/08/22 02:00:48;;;;;;;0.55;0.55;;;;;;;20.64;48.28;100989.03;5136477;28;20045;-81
2022/08/22 02:03:29;;;;;;;0.25;0.25;;;;;;;20.60;48.36;100983.06;5142251;28;20038;-81
2022/08/22 02:06:17;;;;;;;0.50;0.50;;;;;;;20.55;48.61;100983.38;5148772;28;20109;-82
2022/08/22 02:09:10;;;;;;;0.30;0.30;;;;;;;20.55;48.00;100990.50;5135115;28;20121;-82
2022/08/22 02:11:53;;;;;;;0.30;0.30;;;;;;;20.50;48.77;100987.28;5115322;28;20041;-80
2022/08/22 02:14:31;;;;;;;1.08;1.02;;;;;;;20.48;48.02;100982.06;5145494;28;20093;-81
2022/08/22 02:17:31;;;;;;;0.28;0.28;;;;;;;20.46;48.34;100991.94;5149868;28;20807;-80
2022/08/22 02:20:16;;;;;;;0.20;0.20;;;;;;;20.41;48.40;100989.59;5135948;28;20046;-82
2022/08/22 02:23:07;;;;;;;0.38;0.38;;;;;;;20.41;48.33;100988.75;5134110;28;20547;-80
2022/08/22 02:26:07;;;;;;;0.20;0.20;;;;;;;20.34;48.99;100987.41;5131090;28;20042;-79
2022/08/22 02:29:05;;;;;;;0.85;0.85;;;;;;;20.33;48.39;100985.72;5161287;28;20035;-79
2022/08/22 02:31:56;;;;;;;0.30;0.30;;;;;;;20.30;49.01;100989.41;5120856;28;20051;-79
2022/08/22 02:34:38;;;;;;;0.85;0.70;;;;;;;20.28;48.63;100983.34;5139569;28;20061;-79
2022/08/22 02:37:30;;;;;;;0.40;0.40;;;;;;;20.22;49.04;100979.25;5129883;28;20037;-80
2022/08/22 02:40:16;;;;;;;0.20;0.20;;;;;;;20.22;49.20;100978.38;5149429;28;20030;-80
2022/08/22 02:42:57;;;;;;;0.68;0.68;;;;;;;20.20;48.87;100981.16;5116703;28;20113;-80
2022/08/22 02:45:49;;;;;;;0.30;0.30;;;;;;;20.20;48.47;100980.31;5129506;28;20035;-81
2022/08/22 02:48:51;;;;;;;10.23;1.40;;;;;;;20.16;48.73;100971.66;5148952;28;20050;-80
2022/08/22 02:51:46;;;;;;;0.50;0.50;;;;;;;20.14;48.72;100970.91;5134126;28;20297;-81
2022/08/22 02:54:22;;;;;;;0.50;0.50;;;;;;;20.10;48.68;100980.88;5128790;28;20030;-80
2022/08/22 02:57:03;;;;;;;1.00;1.00;;;;;;;20.05;49.38;100976.81;5139225;28;20116;-81
2022/08/22 03:00:14;;;;;;;0.88;0.57;;;;;;;20.02;48.84;100975.19;5135396;28;20037;-81
2022/08/22 03:03:02;;;;;;;0.32;0.32;;;;;;;20.00;49.44;100969.09;5113800;28;20129;-81
2022/08/22 03:05:47;;;;;;;0.68;0.68;;;;;;;19.96;49.91;100967.56;5131316;28;20100;-81
2022/08/22 03:08:36;;;;;;;0.32;0.32;;;;;;;19.94;49.92;100966.84;5109511;28;20443;-81
2022/08/22 03:11:34;;;;;;;0.47;0.47;;;;;;;19.92;49.37;100966.06;5128811;28;20121;-80
2022/08/22 03:14:27;;;;;;;0.82;0.82;;;;;;;19.90;49.71;100968.84;5147802;28;20138;-81
2022/08/22 03:17:05;;;;;;;4.68;1.20;;;;;;;19.89;49.43;100967.13;5162355;28;20096;-80
2022/08/22 03:20:20;;;;;;;0.80;0.80;;;;;;;19.87;49.53;100957.53;5166228;28;20031;-81
2022/08/22 03:23:02;;;;;;;0.38;0.38;;;;;;;19.82;49.92;100961.28;5095880;29;20050;-81
2022/08/22 03:25:39;;;;;;;0.85;0.85;;;;;;;19.82;49.92;100955.09;5106264;28;20047;-81
2022/08/22 03:28:22;;;;;;;0.38;0.38;;;;;;;19.80;49.95;100951.69;5108802;28;20059;-80
2022/08/22 03:31:10;;;;;;;0.50;0.50;;;;;;;19.79;50.12;100953.47;5114340;28;20117;-81
2022/08/22 03:33:41;;;;;;;0.40;0.40;;;;;;;19.77;49.88;100952.72;5142073;28;20053;-80
2022/08/22 03:36:14;;;;;;;0.55;0.55;;;;;;;19.75;49.81;100948.47;5136380;28;20038;-81
2022/08/22 03:39:19;;;;;;;0.22;0.22;;;;;;;19.74;49.64;100947.59;5109817;28;20048;-81
2022/08/22 03:42:10;;;;;;;3.00;1.20;;;;;;;19.75;49.62;100943.97;5146613;28;20053;-81
2022/08/22 03:45:12;;;;;;;0.57;0.57;;;;;;;19.73;49.98;100948.53;5127815;28;20058;-81
2022/08/22 03:48:05;;;;;;;1.02;0.65;;;;;;;19.71;50.13;100942.44;5140655;28;20085;-80
2022/08/22 03:51:00;;;;;;;4.07;0.68;;;;;;;19.68;50.36;100947.97;5128475;28;20045;-80
2022/08/22 03:54:21;;;;;;;0.30;0.30;;;;;;;19.67;50.21;100944.44;5157778;28;20038;-80
2022/08/22 03:57:12;;;;;;;0.77;0.77;;;;;;;19.66;50.04;100944.53;5163623;28;20068;-81
2022/08/22 04:00:21;;;;;;;0.88;0.80;;;;;;;19.63;50.40;100942.06;5157263;28;20124;-80
2022/08/22 04:03:03;;;;;;;0.30;0.30;;;;;;;19.63;50.26;100940.28;5127669;28;20102;-80
2022/08/22 04:05:55;;;;;;;1.05;1.05;;;;;;;19.65;49.87;100940.16;5130527;28;20031;-80
2022/08/22 04:08:48;;;;;;;0.52;0.52;;;;;;;19.61;50.46;100941.31;5149141;28;20049;-80
2022/08/22 04:11:38;;;;;;;0.75;0.75;;;;;;;19.59;50.41;100945.88;5152540;28;20073;-80
2022/08/22 04:14:34;;;;;;;0.30;0.30;;;;;;;19.58;50.34;100944.16;5145706;28;20026;-80
2022/08/22 04:17:22;;;;;;;0.40;0.40;;;;;;;19.56;50.53;100944.25;5107603;28;20034;-81
2022/08/22 04:20:20;;;;;;;2.05;0.73;;;;;;;19.53;51.09;100949.75;5184172;28;20023;-80
2022/08/22 04:23:26;;;;;;;2.40;0.70;;;;;;;19.50;50.98;100950.81;5150607;28;20031;-80
2022/08/22 04:26:03;;;;;;;0.45;0.45;;;;;;;19.50;50.76;100948.16;5165505;28;20093;-80
2022/08/22 04:28:41;;;;;;;0.40;0.40;;;;;;;19.46;51.09;100951.94;5161101;28;20043;-81
2022/08/22 04:31:45;;;;;;;0.60;0.60;;;;;;;19.45;51.29;100946.72;5152583;28;20073;-79
2022/08/22 04:34:40;;;;;;;3.35;0.40;;;;;;;19.44;51.23;100945.88;5112831;28;20046;-80
2022/08/22 04:37:22;;;;;;;0.32;0.32;;;;;;;19.42;51.25;100947.75;5170971;28;20034;-78
2022/08/22 04:40:06;;;;;;;0.30;0.30;;;;;;;19.41;51.41;100945.22;5163376;28;20046;-78
2022/08/22 04:42:40;;;;;;;1.02;0.73;;;;;;;19.40;51.18;100949.66;5154665;28;20027;-79
2022/08/22 04:45:26;;;;;;;0.50;0.50;;;;;;;19.38;51.59;100948.88;5183895;28;20037;-79
2022/08/22 04:47:58;;;;;;;0.65;0.65;;;;;;;19.35;51.93;100943.78;5182730;28;20035;-81
2022/08/22 04:50:33;;;;;;;1.73;0.70;;;;;;;19.33;51.94;100946.53;5145754;28;20170;-80
2022/08/22 04:53:22;;;;;;;0.40;0.40;;;;;;;19.31;52.14;100947.53;5152922;28;20038;-80
2022/08/22 04:55:55;;;;;;;0.40;0.40;;;;;;;19.32;51.46;100946.59;5150475;28;20026;-78
2022/08/22 04:58:37;;;;;;;0.40;0.40;;;;;;;19.31;51.66;100955.53;5127958;28;20057;-79
2022/08/22 05:01:19;;;;;;;0.52;0.52;;;;;;;19.27;52.07;100959.34;5131738;28;20129;-79
2022/08/22 05:04:08;;;;;;;0.75;0.75;;;;;;;19.24;51.87;100962.16;5130714;28;20038;-80
2022/08/22 05:06:49;;;;;;;1.25;1.15;;;;;;;19.23;52.32;100964.00;5127583;28;20688;-81
2022/08/22 05:09:26;;;;;;;0.68;0.68;;;;;;;19.25;51.63;100961.22;5135835;28;20034;-80
2022/08/22 05:12:13;;;;;;;1.20;1.13;;;;;;;19.25;51.46;100958.56;5125132;28;20042;-81
2022/08/22 05:14:56;;;;;;;0.20;0.20;;;;;;;19.28;51.28;100972.53;5113841;28;20637;-80
2022/08/22 05:17:29;;;;;;;0.40;0.40;;;;;;;19.23;51.80;100966.66;5125654;28;20053;-81
2022/08/22 05:20:07;;;;;;;0.88;0.88;;;;;;;19.22;52.10;100964.94;5128923;28;20112;-81
2022/08/22 05:22:44;;;;;;;0.90;0.90;;;;;;;19.23;51.35;100971.09;5127098;28;20142;-81
2022/08/22 05:25:20;;;;;;;0.68;0.68;;;;;;;19.21;51.86;100965.03;5145737;28;20026;-81
2022/08/22 05:31:03;;;;;;;0.73;0.70;;;;;;;19.21;52.08;100965.03;5175200;28;20041;-81
2022/08/22 05:33:51;;;;;;;0.30;0.30;;;;;;;19.18;52.04;100961.59;5132507;28;20061;-81
2022/08/22 05:36:30;;;;;;;3.47;1.05;;;;;;;19.19;52.01;100965.09;5161042;28;20038;-80
2022/08/22 05:39:04;;;;;;;0.40;0.40;;;;;;;19.16;52.91;100971.47;5161854;28;20030;-81
2022/08/22 05:41:37;;;;;;;2.72;1.25;;;;;;;19.16;52.43;100968.81;5112116;28;20058;-81
2022/08/22 05:44:19;;;;;;;;;;;;;;;19.17;53.08;100969.69;5160897;28;20049;-81
2022/08/22 05:47:00;;;;;;;0.60;0.60;;;;;;;19.17;52.20;100970.53;5146284;28;19917;-81
2022/08/22 05:49:38;;;;;;;0.85;0.85;;;;;;;19.17;52.92;100969.69;5132826;28;20096;-80
2022/08/22 05:52:37;;;;;;;1.67;0.70;;;;;;;19.19;52.59;100968.63;5142629;28;20054;-80
2022/08/22 05:55:20;;;;;;;1.00;0.90;;;;;;;19.22;52.63;100974.69;5120012;28;20026;-81
2022/08/22 05:58:16;;;;;;;1.10;1.05;;;;;;;19.21;54.21;100970.34;5120449;28;20112;-80
2022/08/22 06:00:53;;;;;;;1.42;1.40;;;;;;;19.23;52.93;100981.72;5158945;28;20380;-80
2022/08/22 06:03:27;;;;;;;0.40;0.40;;;;;;;19.30;52.81;100985.75;5114070;28;20050;-80
2022/08/22 06:06:14;;;;;;;0.40;0.40;;;;;;;19.28;53.06;100982.34;5161657;28;20410;-81
2022/08/22 06:09:03;;;;;;;0.50;0.50;;;;;;;19.28;53.58;100991.16;5147593;28;20046;-81
2022/08/22 06:11:42;;;;;;;0.68;0.68;;;;;;;19.32;53.18;100994.50;5129564;28;20122;-81
2022/08/22 06:14:32;;;;;;;0.60;0.60;;;;;;;19.37;52.51;100997.75;5128459;28;20027;-81
2022/08/22 06:17:11;;;;;;;1.38;1.27;;;;;;;19.37;53.02;100989.78;5158805;28;20046;-81
2022/08/22 06:19:46;;;;;;;0.73;0.73;;;;;;;19.37;54.17;100997.75;5147672;28;20138;-80
2022/08/22 06:22:24;;;;;;;4.47;1.20;;;;;;;19.44;53.04;100992.91;5152878;28;20151;-80
2022/08/22 06:25:04;;;;;;;0.68;0.68;;;;;;;19.49;52.90;100990.84;5133728;28;20121;-80
2022/08/22 06:27:36;;;;;;;0.47;0.47;;;;;;;19.55;54.12;100990.47;5145354;28;20078;-80
2022/08/22 06:30:12;;;;;;;0.60;0.57;;;;;;;19.61;53.77;100991.91;5133872;28;20050;-80
2022/08/22 06:32:52;;;;;;;1.33;0.82;;;;;;;19.69;53.30;101000.25;5157709;28;20104;-80
2022/08/22 06:36:29;;;;;;;8.70;1.00;;;;;;;19.71;53.80;100998.34;5121852;28;20066;-81
2022/08/22 06:38:59;;;;;;;0.30;0.30;;;;;;;19.75;53.91;100994.56;5145106;28;20591;-80
2022/08/22 06:41:35;;;;;;;0.40;0.40;;;;;;;19.79;54.00;100993.41;5158816;28;20399;-79
2022/08/22 06:44:12;;;;;;;0.28;0.28;;;;;;;19.78;54.94;100994.38;5122085;28;20504;-80
2022/08/22 06:46:46;;;;;;;1.38;0.63;;;;;;;19.82;54.16;100990.56;5141819;28;20053;-79
2022/08/22 06:49:20;;;;;;;0.95;0.95;;;;;;;19.92;53.64;100987.38;5144317;28;20037;-79
2022/08/22 06:51:56;;;;;;;1.30;1.17;;;;;;;19.91;54.39;100990.97;5127067;28;20042;-79
2022/08/22 06:54:31;;;;;;;0.50;0.50;;;;;;;19.93;54.20;100994.41;5106419;28;20034;-79
2022/08/22 06:57:07;;;;;;;0.30;0.30;;;;;;;19.95;55.14;100989.84;5108965;28;20050;-79
2022/08/22 06:59:38;;;;;;;0.57;0.57;;;;;;;20.00;54.46;100986.91;5125066;28;20043;-80
2022/08/22 07:02:23;;;;;;;0.63;0.57;;;;;;;20.06;54.49;100982.03;5121892;28;20071;-79
2022/08/22 07:04:55;;;;;;;0.52;0.52;;;;;;;20.13;54.65;100991.34;5131631;28;20088;-79
2022/08/22 07:07:26;;;;;;;0.50;0.50;;;;;;;20.15;54.70;100987.72;5128910;28;20053;-79
2022/08/22 07:09:57;;;;;;;0.63;0.63;;;;;;;20.23;54.71;100988.09;5157825;28;20632;-79
2022/08/22 07:12:30;;;;;;;0.40;0.40;;;;;;;20.29;55.03;100985.03;5144108;28;20046;-79
2022/08/22 07:15:33;;;;;;;0.57;0.57;;;;;;;20.41;55.19;100992.25;5142687;28;20641;-80
2022/08/22 07:18:16;;;;;;;0.52;0.52;;;;;;;20.45;56.13;100983.09;5106480;28;20038;-79
2022/08/22 07:20:51;;;;;;;0.30;0.30;;;;;;;20.51;55.60;100986.31;5115693;28;20411;-80
2022/08/22 07:23:44;;;;;;;0.30;0.30;;;;;;;20.60;54.57;100983.06;5115566;28;20376;-79
2022/08/22 07:26:30;;;;;;;2.65;0.75;;;;;;;20.67;55.22;100984.38;5134303;28;20034;-80
2022/08/22 07:29:43;;;;;;;1.10;0.75;;;;;;;20.71;55.87;100985.88;5158008;28;20042;-80
2022/08/22 07:32:25;;;;;;;0.43;0.40;;;;;;;20.81;54.73;100985.28;5117765;28;20046;-80
2022/08/22 07:35:11;;;;;;;1.27;1.17;;;;;;;20.86;55.92;100991.19;5131314;28;20018;-80
2022/08/22 07:37:56;;;;;;;0.20;0.20;;;;;;;20.89;56.11;100986.50;5151409;28;20108;-81
2022/08/22 07:41:00;;;;;;;0.30;0.30;;;;;;;21.05;54.26;100996.16;5109590;28;20026;-80
2022/08/22 07:43:39;;;;;;;0.52;0.30;;;;;;;21.09;55.09;100992.31;5154668;28;20050;-80
2022/08/22 07:46:37;;;;;;;0.70;0.70;;;;;;;21.23;54.49;100988.72;5126225;28;20031;-80
2022/08/22 07:49:21;;;;;;;6.18;1.23;;;;;;;21.22;55.50;100990.53;5140144;28;20411;-80
2022/08/22 07:51:55;;;;;;;3.33;1.38;;;;;;;21.28;56.26;100988.41;5125763;28;20050;-80
2022/08/22 07:54:40;;;;;;;0.65;0.65;;;;;;;21.34;55.19;100994.19;5128524;28;20022;-78
2022/08/22 07:57:20;;;;;;;0.45;0.45;;;;;;;21.44;54.72;100988.22;5151290;28;20038;-80
2022/08/22 07:59:54;;;;;;;1.05;0.80;;;;;;;21.47;54.95;100990.66;5127407;28;20531;-80
2022/08/22 08:02:25;;;;;;;0.45;0.45;;;;;;;21.52;54.83;100980.53;5142605;28;20466;-80
2022/08/22 08:04:59;;;;;;;0.40;0.40;;;;;;;21.60;54.64;100988.91;5127249;28;20533;-80
2022/08/22 08:07:31;;;;;;;0.30;0.30;;;;;;;21.70;53.97;100989.94;5123749;28;20562;-80
2022/08/22 08:10:10;;;;;;;0.40;0.40;;;;;;;21.74;54.71;100984.38;5162795;28;20058;-80
2022/08/22 08:12:47;;;;;;;0.22;0.22;;;;;;;21.81;54.27;100989.22;5124697;28;20046;-81
2022/08/22 08:15:22;;;;;;;1.38;1.27;;;;;;;21.89;54.35;100987.81;5143500;28;20026;-80
2022/08/22 08:17:59;;;;;;;0.30;0.30;;;;;;;21.90;54.32;100984.19;5143672;28;20223;-80
2022/08/22 08:20:33;;;;;;;1.85;0.60;;;;;;;22.00;54.45;100970.06;5104240;28;20050;-81
2022/08/22 08:23:08;;;;;;;0.20;0.20;;;;;;;22.07;54.14;100978.47;5144333;28;20042;-80
2022/08/22 08:25:57;;;;;;;1.38;1.25;;;;;;;22.20;53.62;100970.41;5145044;28;20034;-80
2022/08/22 08:28:34;;;;;;;0.43;0.43;;;;;;;22.22;53.76;100965.81;5126913;28;20046;-80
2022/08/22 08:31:14;;;;;;;0.55;0.55;;;;;;;22.22;53.80;100967.66;5138908;28;20094;-80
2022/08/22 08:33:49;;;;;;;2.35;0.68;;;;;;;22.27;53.60;100949.44;5140693;28;20042;-80
2022/08/22 08:36:32;;;;;;;0.30;0.30;;;;;;;22.32;53.42;100953.50;5109341;28;20620;-81
2022/08/22 08:39:17;;;;;;;0.40;0.40;;;;;;;22.38;53.22;100954.00;5142263;28;20034;-81
2022/08/22 08:42:10;;;;;;;0.20;0.20;;;;;;;22.45;53.22;100948.13;5154749;28;20340;-80
2022/08/22 08:45:03;;;;;;;0.57;0.57;;;;;;;22.51;52.91;100952.19;5140644;28;20046;-81
2022/08/22 08:47:57;;;;;;;0.50;0.50;;;;;;;22.54;52.86;100946.59;5130659;28;20050;-80
2022/08/22 08:50:58;;;;;;;0.57;0.57;;;;;;;22.60;52.70;100948.78;5103263;28;20031;-80
2022/08/22 08:53:49;;;;;;;0.68;0.57;;;;;;;22.80;52.05;100938.44;5138462;28;20045;-80
2022/08/22 08:56:33;;;;;;;1.13;1.08;;;;;;;22.79;52.08;100944.75;5149090;28;20098;-80
2022/08/22 08:59:35;;;;;;;0.45;0.45;;;;;;;22.93;52.29;100938.38;5126266;28;20136;-81
2022/08/22 09:02:39;;;;;;;0.30;0.30;;;;;;;22.99;51.76;100935.22;5157757;28;20151;-80
2022/08/22 09:05:16;;;;;;;0.50;0.50;;;;;;;23.06;51.57;100930.25;5107604;28;20027;-81
2022/08/22 09:08:17;;;;;;;0.60;0.52;;;;;;;23.16;51.49;100928.59;5143620;28;20043;-80
2022/08/22 09:11:19;;;;;;;0.35;0.35;;;;;;;23.26;50.87;100928.75;5142986;28;20688;-80
2022/08/22 09:14:24;;;;;;;0.20;0.20;;;;;;;23.34;51.11;100933.50;5141643;28;20128;-80
2022/08/22 09:17:32;;;;;;;6.70;1.58;;;;;;;23.44;50.57;100926.44;5156693;28;20121;-80
2022/08/22 09:20:09;;;;;;;6.72;0.95;;;;;;;23.49;49.89;100936.78;5139692;28;20030;-80
2022/08/22 09:22:42;;;;;;;0.40;0.40;;;;;;;23.47;50.11;100933.41;5143742;28;20039;-80
2022/08/22 09:25:20;;;;;;;0.52;0.52;;;;;;;23.51;49.90;100935.69;5131311;28;20113;-80
2022/08/22 09:28:28;;;;;;;0.30;0.30;;;;;;;23.53;49.49;100927.56;5150327;28;20045;-80
2022/08/22 09:31:56;;;;;;;0.85;0.85;;;;;;;23.63;49.63;100927.69;5108921;28;20049;-80
2022/08/22 09:34:30;;;;;;;0.38;0.38;;;;;;;23.65;49.10;100923.06;5078472;29;20054;-80
2022/08/22 09:37:18;;;;;;;0.75;0.75;;;;;;;23.68;48.58;100923.66;5083337;29;20048;-80
2022/08/22 09:39:52;;;;;;;2.28;1.38;;;;;;;23.73;49.14;100923.31;5132370;28;20046;-80
2022/08/22 09:42:26;;;;;;;0.32;0.32;;;;;;;23.73;48.64;100918.78;5125941;28;20573;-81
2022/08/22 09:45:25;;;;;;;0.28;0.28;;;;;;;23.79;48.58;100914.75;5109959;28;20030;-80
2022/08/22 09:48:11;;;;;;;0.30;0.30;;;;;;;23.78;48.16;100909.53;5135821;28;20050;-80
2022/08/22 09:51:13;;;;;;;0.30;0.30;;;;;;;23.84;48.09;100914.41;5129262;28;20035;-80
2022/08/22 09:53:44;;;;;;;2.65;1.25;;;;;;;23.94;47.74;100919.88;5153092;28;20054;-80
2022/08/22 09:56:30;;;;;;;0.63;0.63;;;;;;;23.98;47.96;100919.53;5140130;28;20031;-80
2022/08/22 09:59:03;;;;;;;1.38;0.85;;;;;;;24.02;48.06;100922.81;5133820;28;20046;-80
2022/08/22 10:02:15;;;;;;;1.35;1.17;;;;;;;24.07;47.32;100917.94;5121057;28;20039;-80
2022/08/22 10:05:21;;;;;;;1.35;0.70;;;;;;;24.07;47.42;100904.53;5119158;28;20517;-81
2022/08/22 10:07:51;;;;;;;0.20;0.20;;;;;;;24.12;47.30;100913.03;5121220;28;20041;-81
2022/08/22 10:10:45;;;;;;;0.40;0.40;;;;;;;24.11;46.63;100914.00;5164363;28;20104;-80
2022/08/22 10:13:36;;;;;;;3.72;1.10;;;;;;;24.19;47.07;100908.88;5145235;28;20566;-80
2022/08/22 10:16:30;;;;;;;0.38;0.38;;;;;;;24.26;46.89;100922.63;5111411;28;20031;-80
2022/08/22 10:19:16;;;;;;;0.20;0.20;;;;;;;24.33;46.52;100914.94;5126715;28;20038;-80
2022/08/22 10:22:06;;;;;;;0.73;0.32;;;;;;;24.41;46.08;100911.63;5100344;28;20042;-80
2022/08/22 10:24:59;;;;;;;0.68;0.68;;;;;;;24.51;45.21;100913.41;5158592;28;20097;-80
2022/08/22 10:27:48;;;;;;;0.60;0.60;;;;;;;24.45;44.99;100907.72;5139149;28;20049;-80
2022/08/22 10:30:29;;;;;;;3.20;1.30;;;;;;;24.39;45.42;100900.16;5139641;28;20034;-80
2022/08/22 10:33:15;;;;;;;0.28;0.28;;;;;;;24.39;45.46;100908.22;5129919;28;20731;-80
2022/08/22 10:35:49;;;;;;;0.63;0.63;;;;;;;24.45;45.00;100905.88;5124868;28;20055;-80
2022/08/22 10:38:26;;;;;;;4.18;1.35;;;;;;;24.53;45.47;100897.22;5115005;28;20059;-81
2022/08/22 10:41:35;;;;;;;0.32;0.32;;;;;;;24.58;45.29;100897.66;5129568;28;20054;-79
2022/08/22 10:44:34;;;;;;;0.68;0.68;;;;;;;24.59;45.00;100903.84;5122968;28;20047;-80
2022/08/22 10:47:08;;;;;;;0.30;0.30;;;;;;;24.71;45.32;100900.19;5139305;28;20077;-80
2022/08/22 10:49:52;;;;;;;0.70;0.70;;;;;;;24.71;44.81;100897.50;5144555;28;20026;-81
2022/08/22 10:52:30;;;;;;;0.20;0.20;;;;;;;24.76;45.10;100889.06;5113475;28;20540;-80
2022/08/22 10:55:16;;;;;;;0.38;0.38;;;;;;;24.82;45.20;100880.50;5131921;28;20054;-80
2022/08/22 10:58:08;;;;;;;0.80;0.50;;;;;;;24.86;45.11;100889.13;5109262;28;20723;-80
2022/08/22 11:00:45;;;;;;;22.90;1.27;;;;;;;24.92;45.29;100883.22;5141192;28;20046;-80
2022/08/22 11:03:44;;;;;;;0.45;0.45;;;;;;;24.95;45.28;100882.97;5128715;28;20110;-80
2022/08/22 11:06:45;;;;;;;3.95;0.50;;;;;;;24.98;44.67;100872.84;5162996;28;20035;-80
2022/08/22 11:09:25;;;;;;;1.02;1.00;;;;;;;25.10;44.41;100870.91;5137660;28;20087;-80
2022/08/22 11:12:03;;;;;;;1.30;1.15;;;;;;;25.22;43.59;100878.91;5106229;28;20050;-80
2022/08/22 11:14:40;;;;;;;1.30;0.50;;;;;;;25.24;43.82;100874.25;5108619;28;20033;-81
2022/08/22 11:17:26;;;;;;;0.30;0.30;;;;;;;25.24;43.88;100875.09;5114257;28;20054;-80
2022/08/22 11:20:07;;;;;;;4.72;2.92;;;;;;;25.26;43.69;100870.44;5131720;28;20516;-81
2022/08/22 11:22:50;;;;;;;1.10;0.85;;;;;;;25.35;43.92;100867.94;5120602;28;20043;-82
2022/08/22 11:25:48;;;;;;;0.22;0.22;;;;;;;25.39;44.08;100870.25;5136050;28;20504;-81
2022/08/22 11:28:40;;;;;;;0.20;0.20;;;;;;;25.39;43.97;100856.84;5122139;28;20669;-82
2022/08/22 11:32:04;;;;;;;0.45;0.45;;;;;;;25.54;42.39;100859.13;5154060;28;20555;-82
2022/08/22 11:35:15;;;;;;;;;;;;;;;;;;;;;
2022/08/22 11:38:17;;;;;;;0.68;0.38;;;;;;;25.57;41.88;100866.94;5130278;28;20050;-82
2022/08/22 11:41:16;;;;;;;0.40;0.40;;;;;;;25.66;43.05;100855.34;5124291;28;20678;-82
2022/08/22 11:44:16;;;;;;;0.57;0.57;;;;;;;25.69;41.79;100860.47;5138433;28;20422;-82
2022/08/22 11:46:53;;;;;;;0.93;0.88;;;;;;;25.68;42.63;100856.06;5142607;28;20031;-81
2022/08/22 11:49:30;;;;;;;0.52;0.52;;;;;;;25.65;42.72;100853.69;5150122;28;20031;-81
2022/08/22 11:52:23;;;;;;;0.30;0.30;;;;;;;25.61;41.95;100860.28;5147530;28;20030;-83
2022/08/22 11:55:17;;;;;;;0.30;0.30;;;;;;;25.65;42.80;100856.38;5161511;28;20061;-82
2022/08/22 11:57:57;;;;;;;0.10;0.10;;;;;;;25.71;42.56;100852.25;5129259;28;20091;-80
2022/08/22 12:00:50;;;;;;;0.47;0.47;;;;;;;25.73;42.60;100853.84;5163458;28;20261;-81
2022/08/22 12:03:39;;;;;;;0.43;0.43;;;;;;;25.82;43.01;100845.94;5156623;28;20047;-82
2022/08/22 12:06:31;;;;;;;0.60;0.60;;;;;;;25.88;42.85;100848.91;5145732;28;20362;-81
2022/08/22 12:09:14;;;;;;;1.38;0.80;;;;;;;25.96;42.97;100850.91;5134712;28;20039;-81
2022/08/22 12:12:01;;;;;;;0.50;0.50;;;;;;;26.00;42.72;100841.56;5143696;28;20042;-82
2022/08/22 12:14:40;;;;;;;0.20;0.20;;;;;;;26.01;42.01;100848.63;5109977;28;20035;-81
2022/08/22 12:17:23;;;;;;;0.40;0.40;;;;;;;26.06;42.75;100838.34;5140491;28;20045;-82
2022/08/22 12:19:59;;;;;;;0.30;0.30;;;;;;;26.11;42.59;100845.16;5126579;28;20054;-81
2022/08/22 12:22:41;;;;;;;2.08;1.05;;;;;;;26.13;41.67;100837.78;5127800;28;20089;-81
2022/08/22 12:25:15;;;;;;;0.20;0.20;;;;;;;26.14;41.50;100836.81;5145836;28;20051;-82
2022/08/22 12:28:12;;;;;;;0.20;0.20;;;;;;;26.15;41.14;100830.44;5146126;28;20571;-82
2022/08/22 12:30:48;;;;;;;0.20;0.20;;;;;;;26.24;42.32;100827.75;5141843;28;20097;-81
2022/08/22 12:33:38;;;;;;;0.95;0.63;;;;;;;26.30;41.83;100834.41;5124466;28;20053;-82
2022/08/22 12:36:27;;;;;;;0.90;0.73;;;;;;;26.29;42.06;100829.16;5128385;28;20038;-80
2022/08/22 12:39:18;;;;;;;0.30;0.30;;;;;;;26.36;41.61;100823.06;5136359;28;20039;-81
2022/08/22 12:41:48;;;;;;;0.45;0.45;;;;;;;26.43;41.95;100817.13;5102065;28;20104;-80
2022/08/22 12:45:03;;;;;;;0.20;0.20;;;;;;;26.44;42.10;100821.50;5133422;28;20026;-81
2022/08/22 12:48:06;;;;;;;0.95;0.73;;;;;;;26.47;41.04;100815.84;5109260;28;20081;-81
2022/08/22 12:50:37;;;;;;;0.32;0.32;;;;;;;26.55;42.13;100822.19;5141252;28;20042;-80
2022/08/22 12:53:32;;;;;;;0.10;0.10;;;;;;;26.54;40.78;100815.13;5144361;28;20042;-80
2022/08/22 12:56:24;;;;;;;0.40;0.40;;;;;;;26.67;40.63;100813.97;5164703;28;20130;-80
2022/08/22 12:59:23;;;;;;;0.63;0.63;;;;;;;26.62;39.73;100806.34;5141362;28;20692;-80
2022/08/22 13:01:58;;;;;;;0.30;0.30;;;;;;;26.59;40.17;100813.84;5128772;28;20078;-80